Time;durP1;ratioP1;P1;durP2;ratioP2;P2;SDS_P1;SDS_P2;PMS_P1;PMS_P2;Temp;Humidity;BMP_temperature;BMP_pressure;BME280_temperature;BME280_humidity;BME280_pressure;Samples;Min_cycle;Max_cycle;Signal;HPM_P1;HPM_P2
2021/09/06 00:01:00;;;;;;;1.42;0.30;;;17.70;64.90;;;;;;5115075;28;20042;-74
2021/09/06 00:03:27;;;;;;;0.50;0.40;;;17.80;62.40;;;;;;5114089;28;20020;-69
2021/09/06 00:05:56;;;;;;;5.30;0.60;;;17.90;62.00;;;;;;5111550;28;20159;-67
2021/09/06 00:08:24;;;;;;;1.35;0.50;;;18.00;61.30;;;;;;5113105;28;20035;-68
2021/09/06 00:11:10;;;;;;;1.13;0.75;;;18.00;62.30;;;;;;5116051;28;20059;-64
2021/09/06 00:13:42;;;;;;;1.20;0.50;;;18.10;62.50;;;;;;5115167;28;20409;-66
2021/09/06 00:16:10;;;;;;;0.70;0.38;;;18.10;63.50;;;;;;5113727;28;20389;-65
2021/09/06 00:18:37;;;;;;;2.95;0.85;;;18.20;61.20;;;;;;5111513;28;20161;-64
2021/09/06 00:21:08;;;;;;;2.33;0.60;;;18.30;59.90;;;;;;5091761;28;20039;-65
2021/09/06 00:23:36;;;;;;;0.93;0.30;;;18.30;61.80;;;;;;5111740;28;20055;-61
2021/09/06 00:26:05;;;;;;;1.27;0.50;;;18.30;62.80;;;;;;5093713;28;20110;-62
2021/09/06 00:28:32;;;;;;;1.08;0.35;;;18.30;60.00;;;;;;5110405;28;20126;-65
2021/09/06 00:31:00;;;;;;;4.38;0.60;;;18.40;61.20;;;;;;5111331;28;20035;-64
2021/09/06 00:33:27;;;;;;;3.05;0.40;;;18.40;62.40;;;;;;5111202;28;20114;-61
2021/09/06 00:35:57;;;;;;;1.80;0.40;;;18.50;61.50;;;;;;5109796;28;20109;-65
2021/09/06 00:38:25;;;;;;;1.52;0.57;;;18.60;57.70;;;;;;5092794;28;20023;-70
2021/09/06 00:40:52;;;;;;;3.30;0.47;;;18.60;61.50;;;;;;5111151;28;20020;-64
2021/09/06 00:43:20;;;;;;;2.63;0.40;;;18.70;61.90;;;;;;5111141;28;20147;-69
2021/09/06 00:45:47;;;;;;;1.55;0.40;;;18.70;60.50;;;;;;5094033;28;20024;-71
2021/09/06 00:48:18;;;;;;;0.80;0.30;;;18.80;59.20;;;;;;5112727;28;20035;-74
2021/09/06 00:50:47;;;;;;;0.75;0.50;;;18.80;55.50;;;;;;5113022;28;20027;-76
2021/09/06 00:53:15;;;;;;;0.52;0.30;;;18.90;57.10;;;;;;5095391;28;20024;-72
2021/09/06 00:55:43;;;;;;;2.50;1.20;;;18.90;61.40;;;;;;5114020;28;20059;-72
2021/09/06 00:58:11;;;;;;;1.50;0.43;;;19.00;58.30;;;;;;5116010;28;20033;-66
2021/09/06 01:00:38;;;;;;;0.32;0.30;;;19.00;60.10;;;;;;5115478;28;20370;-72
2021/09/06 01:03:06;;;;;;;1.15;0.50;;;19.00;59.90;;;;;;5113478;28;20523;-78
2021/09/06 01:05:33;;;;;;;0.50;0.45;;;19.10;58.20;;;;;;5112896;28;20127;-74
2021/09/06 01:08:01;;;;;;;0.68;0.25;;;19.10;58.30;;;;;;5095040;28;20035;-72
2021/09/06 01:10:29;;;;;;;1.00;0.60;;;19.20;57.40;;;;;;5113113;28;20079;-77
2021/09/06 01:12:56;;;;;;;0.82;0.50;;;19.20;58.90;;;;;;5111514;28;20363;-74
2021/09/06 01:15:23;;;;;;;1.15;0.30;;;19.30;59.30;;;;;;5112298;28;20050;-72
2021/09/06 01:17:51;;;;;;;0.73;0.40;;;19.20;57.40;;;;;;5112631;28;20020;-69
2021/09/06 01:20:18;;;;;;;1.13;0.50;;;19.30;58.30;;;;;;5112180;28;20055;-74
2021/09/06 01:22:46;;;;;;;0.55;0.40;;;19.40;56.50;;;;;;5111557;28;20024;-67
2021/09/06 01:25:20;;;;;;;1.73;0.70;;;19.40;57.20;;;;;;5112034;28;20055;-66
2021/09/06 01:27:48;;;;;;;0.70;0.43;;;19.40;55.60;;;;;;5111561;28;20031;-71
2021/09/06 01:30:15;;;;;;;0.93;0.50;;;19.50;56.20;;;;;;5110955;28;20051;-64
2021/09/06 01:32:43;;;;;;;0.63;0.40;;;19.50;57.00;;;;;;5110732;28;20462;-67
2021/09/06 01:35:10;;;;;;;0.22;0.20;;;19.50;57.00;;;;;;5091082;28;20024;-68
2021/09/06 01:37:38;;;;;;;0.45;0.40;;;19.50;55.80;;;;;;5110011;28;20039;-63
2021/09/06 01:40:07;;;;;;;0.80;0.40;;;19.50;57.20;;;;;;5111461;28;20474;-67
2021/09/06 01:42:34;;;;;;;0.28;0.28;;;19.40;58.60;;;;;;5109836;28;20058;-62
2021/09/06 01:45:02;;;;;;;1.00;0.80;;;19.50;58.70;;;;;;5110491;28;20115;-72
2021/09/06 01:47:30;;;;;;;0.98;0.45;;;19.50;55.40;;;;;;5110572;28;20057;-65
2021/09/06 01:49:58;;;;;;;2.72;1.05;;;19.50;56.00;;;;;;5110031;28;20027;-61
2021/09/06 01:52:28;;;;;;;1.10;0.40;;;19.60;58.20;;;;;;5111030;28;20119;-74
2021/09/06 01:54:55;;;;;;;0.40;0.30;;;19.50;55.90;;;;;;5110767;28;20027;-62
2021/09/06 01:57:23;;;;;;;4.40;0.30;;;19.50;57.50;;;;;;5112358;28;20016;-67
2021/09/06 01:59:50;;;;;;;0.55;0.35;;;19.50;58.30;;;;;;5111364;28;20471;-68
2021/09/06 02:02:17;;;;;;;0.55;0.30;;;19.50;58.20;;;;;;5109272;28;20027;-70
2021/09/06 02:04:45;;;;;;;3.65;0.25;;;19.50;58.60;;;;;;5093977;28;20019;-64
2021/09/06 02:07:12;;;;;;;1.48;0.25;;;19.50;57.70;;;;;;5113980;28;20372;-69
2021/09/06 02:09:40;;;;;;;0.88;0.30;;;19.50;56.90;;;;;;5088107;28;20036;-64
2021/09/06 02:12:07;;;;;;;1.30;0.35;;;19.50;58.30;;;;;;5109713;28;20077;-68
2021/09/06 02:14:35;;;;;;;1.25;0.38;;;19.40;57.00;;;;;;5112165;28;20470;-66
2021/09/06 02:17:02;;;;;;;0.90;0.70;;;19.30;59.10;;;;;;5112700;28;20035;-69
2021/09/06 02:19:30;;;;;;;1.13;0.40;;;19.30;59.10;;;;;;5112654;28;20031;-71
2021/09/06 02:21:57;;;;;;;2.40;0.50;;;19.20;59.20;;;;;;5094850;28;20060;-76
2021/09/06 02:24:26;;;;;;;1.95;0.50;;;19.20;57.00;;;;;;5094882;28;20131;-74
2021/09/06 02:26:53;;;;;;;1.55;0.50;;;19.20;58.70;;;;;;5095291;28;20072;-72
2021/09/06 02:29:21;;;;;;;0.77;0.45;;;19.20;59.90;;;;;;5092765;28;20492;-68
2021/09/06 02:31:48;;;;;;;2.35;0.50;;;19.20;58.40;;;;;;5094399;28;20032;-75
2021/09/06 02:34:16;;;;;;;0.65;0.40;;;19.30;59.20;;;;;;5093273;28;20035;-76
2021/09/06 02:36:43;;;;;;;3.65;0.50;;;19.40;58.20;;;;;;5092575;28;20093;-68
2021/09/06 02:39:11;;;;;;;2.05;0.85;;;19.40;58.00;;;;;;5093234;28;20422;-71
2021/09/06 02:41:38;;;;;;;0.63;0.50;;;19.40;58.70;;;;;;5091305;28;20048;-72
2021/09/06 02:44:06;;;;;;;2.58;0.60;;;19.40;58.30;;;;;;5092618;28;20375;-75
2021/09/06 02:46:33;;;;;;;1.90;0.65;;;19.50;59.30;;;;;;5092755;28;20027;-67
2021/09/06 02:49:01;;;;;;;1.80;0.93;;;19.60;56.70;;;;;;5093574;28;20040;-73
2021/09/06 02:51:28;;;;;;;0.70;0.45;;;19.60;58.20;;;;;;5093080;28;20356;-74
2021/09/06 02:53:56;;;;;;;3.42;0.70;;;19.60;59.10;;;;;;5092778;28;20035;-72
2021/09/06 02:56:23;;;;;;;2.35;0.73;;;19.70;58.10;;;;;;5095866;28;20120;-66
2021/09/06 02:58:51;;;;;;;2.15;0.50;;;19.70;56.80;;;;;;5109140;28;20056;-63
2021/09/06 03:01:18;;;;;;;1.77;0.73;;;19.80;58.50;;;;;;5109240;28;21214;-63
2021/09/06 03:03:46;;;;;;;3.03;0.55;;;19.90;57.10;;;;;;5091438;28;20031;-69
2021/09/06 03:06:13;;;;;;;1.27;0.52;;;19.90;58.30;;;;;;5102135;28;20397;-63
2021/09/06 03:08:41;;;;;;;2.58;0.50;;;19.90;57.50;;;;;;5110410;28;20040;-67
2021/09/06 03:11:08;;;;;;;1.80;0.80;;;19.90;57.90;;;;;;5109325;28;20027;-64
2021/09/06 03:13:35;;;;;;;1.83;0.60;;;19.90;57.90;;;;;;5087414;28;20018;-63
2021/09/06 03:16:03;;;;;;;1.65;0.77;;;19.90;57.60;;;;;;5099548;28;20040;-73
2021/09/06 03:18:30;;;;;;;1.40;0.60;;;19.90;57.10;;;;;;5114929;28;20378;-74
2021/09/06 03:21:02;;;;;;;4.10;0.95;;;19.90;56.90;;;;;;5109721;28;20489;-69
2021/09/06 03:23:29;;;;;;;4.20;0.93;;;19.90;57.30;;;;;;5109374;28;20035;-72
2021/09/06 03:25:57;;;;;;;2.17;0.65;;;19.90;57.80;;;;;;5102696;28;20829;-65
2021/09/06 03:28:24;;;;;;;3.25;0.85;;;19.90;56.90;;;;;;5109332;28;20046;-70
2021/09/06 03:30:52;;;;;;;1.75;0.65;;;19.90;56.30;;;;;;5109839;28;20039;-66
2021/09/06 03:33:19;;;;;;;5.60;1.17;;;19.90;57.70;;;;;;5090245;28;20037;-67
2021/09/06 03:35:47;;;;;;;3.38;1.08;;;20.00;55.60;;;;;;5104791;28;20059;-66
2021/09/06 03:38:15;;;;;;;2.72;1.00;;;20.00;57.60;;;;;;5107372;28;20098;-63
2021/09/06 03:40:43;;;;;;;2.63;0.80;;;20.00;57.60;;;;;;5109106;28;20018;-60
2021/09/06 03:43:10;;;;;;;2.42;0.95;;;20.00;56.60;;;;;;5104415;28;20050;-65
2021/09/06 03:45:38;;;;;;;3.97;0.80;;;20.00;57.20;;;;;;5107221;28;20474;-67
2021/09/06 03:48:05;;;;;;;3.90;1.13;;;20.00;57.30;;;;;;5103362;28;20032;-66
2021/09/06 03:50:33;;;;;;;4.57;1.10;;;20.00;57.50;;;;;;5108254;28;20463;-63
2021/09/06 03:53:00;;;;;;;3.53;0.70;;;20.00;56.50;;;;;;5108023;28;20435;-62
2021/09/06 03:55:27;;;;;;;3.90;1.05;;;20.00;58.30;;;;;;5107328;28;20081;-68
2021/09/06 03:57:55;;;;;;;5.68;1.08;;;20.00;55.90;;;;;;5101540;28;20041;-71
2021/09/06 04:00:23;;;;;;;3.22;1.20;;;20.00;57.00;;;;;;5106784;28;20014;-64
2021/09/06 04:02:50;;;;;;;5.60;1.75;;;20.10;58.40;;;;;;5108265;28;20024;-66
2021/09/06 04:05:17;;;;;;;5.25;1.83;;;20.10;56.70;;;;;;5107439;28;20027;-65
2021/09/06 04:07:45;;;;;;;3.60;1.00;;;20.10;55.70;;;;;;5098393;28;20078;-65
2021/09/06 04:10:12;;;;;;;3.58;1.50;;;20.10;57.00;;;;;;5109874;28;20016;-70
2021/09/06 04:12:40;;;;;;;2.90;1.25;;;20.10;56.90;;;;;;5108494;28;20019;-63
2021/09/06 04:15:12;;;;;;;5.43;1.75;;;20.10;57.50;;;;;;5108139;28;21141;-67
2021/09/06 04:17:40;;;;;;;4.50;1.08;;;20.00;57.90;;;;;;5099349;28;20032;-65
2021/09/06 04:20:08;;;;;;;3.65;1.40;;;20.00;57.10;;;;;;5108607;28;20018;-67
2021/09/06 04:22:37;;;;;;;2.95;1.10;;;20.00;57.50;;;;;;5108460;28;20034;-63
2021/09/06 04:25:05;;;;;;;5.65;1.45;;;20.10;57.70;;;;;;5105633;28;20045;-63
2021/09/06 04:27:32;;;;;;;5.78;1.48;;;20.10;57.70;;;;;;5097956;27;20039;-64
2021/09/06 04:30:00;;;;;;;4.63;1.52;;;20.10;57.20;;;;;;5108160;28;20031;-65
2021/09/06 04:32:27;;;;;;;10.73;1.33;;;20.00;58.20;;;;;;5103449;28;20028;-59
2021/09/06 04:34:55;;;;;;;9.40;1.50;;;20.10;57.90;;;;;;5105879;28;20023;-59
2021/09/06 04:37:22;;;;;;;2.78;0.90;;;20.10;56.60;;;;;;5098779;28;20027;-59
2021/09/06 04:39:50;;;;;;;4.55;1.30;;;20.20;58.60;;;;;;5108270;28;20027;-63
2021/09/06 04:42:18;;;;;;;4.68;1.52;;;20.10;57.30;;;;;;5086112;28;20052;-67
2021/09/06 04:44:45;;;;;;;5.43;1.38;;;20.10;56.50;;;;;;5106976;28;20355;-65
2021/09/06 04:47:14;;;;;;;2.10;1.20;;;20.10;56.40;;;;;;5078344;28;20023;-62
2021/09/06 04:49:42;;;;;;;8.13;2.15;;;20.20;56.30;;;;;;5103633;28;20031;-63
2021/09/06 04:52:10;;;;;;;6.03;1.38;;;20.20;55.60;;;;;;5107862;28;20047;-60
2021/09/06 04:54:37;;;;;;;3.45;1.17;;;20.20;56.40;;;;;;5102173;28;20418;-63
2021/09/06 04:57:05;;;;;;;4.18;1.25;;;20.10;55.80;;;;;;5092446;28;20027;-62
2021/09/06 04:59:32;;;;;;;5.05;1.75;;;20.10;57.40;;;;;;5107255;28;20036;-61
2021/09/06 05:02:00;;;;;;;3.63;1.15;;;20.20;58.00;;;;;;5103376;28;20038;-63
2021/09/06 05:04:27;;;;;;;3.88;1.55;;;20.20;57.80;;;;;;5106699;28;20106;-62
2021/09/06 05:06:58;;;;;;;7.13;1.67;;;20.20;57.60;;;;;;5072078;28;20429;-62
2021/09/06 05:09:25;;;;;;;6.07;1.60;;;20.30;57.20;;;;;;5106912;28;20028;-61
2021/09/06 05:11:52;;;;;;;2.70;1.08;;;20.30;56.60;;;;;;5107211;28;20053;-63
2021/09/06 05:14:20;;;;;;;4.90;1.33;;;20.30;57.70;;;;;;5089130;28;20497;-64
2021/09/06 05:16:54;;;;;;;3.55;1.23;;;20.30;58.40;;;;;;5099901;28;20492;-59
2021/09/06 05:19:22;;;;;;;4.45;1.60;;;20.30;58.70;;;;;;5084325;28;20024;-66
2021/09/06 05:21:49;;;;;;;8.40;1.83;;;20.20;57.50;;;;;;5107322;28;20020;-61
2021/09/06 05:24:16;;;;;;;3.78;1.30;;;20.20;56.50;;;;;;5107158;28;20061;-64
2021/09/06 05:26:44;;;;;;;3.65;1.20;;;20.30;58.40;;;;;;5094540;28;20034;-64
2021/09/06 05:29:11;;;;;;;5.45;1.90;;;20.30;58.20;;;;;;5103125;28;20474;-51
2021/09/06 05:31:39;;;;;;;7.50;1.95;;;20.40;56.90;;;;;;5088998;28;20081;-56
2021/09/06 05:34:06;;;;;;;11.02;2.83;;;20.40;53.70;;;;;;5107103;28;20088;-51
2021/09/06 05:36:33;;;;;;;8.63;2.45;;;20.30;52.10;;;;;;5088014;28;20024;-53
2021/09/06 05:39:04;;;;;;;9.57;2.20;;;20.20;52.60;;;;;;5103477;28;20051;-52
2021/09/06 05:41:31;;;;;;;6.93;2.20;;;20.20;53.00;;;;;;5107112;28;20065;-65
2021/09/06 05:43:58;;;;;;;8.38;2.22;;;20.20;54.40;;;;;;5090157;28;20035;-66
2021/09/06 05:46:26;;;;;;;7.63;1.85;;;20.10;55.20;;;;;;5099666;28;20048;-62
2021/09/06 05:48:53;;;;;;;7.05;1.90;;;20.00;56.00;;;;;;5092755;28;20039;-65
2021/09/06 05:51:20;;;;;;;5.50;1.92;;;20.00;56.70;;;;;;5111478;28;20577;-62
2021/09/06 05:53:48;;;;;;;7.30;1.92;;;20.10;56.00;;;;;;5106178;28;20465;-63
2021/09/06 05:56:19;;;;;;;5.07;1.63;;;20.10;56.00;;;;;;5097726;28;20040;-66
2021/09/06 05:58:46;;;;;;;8.32;1.70;;;20.10;56.10;;;;;;5110461;28;20023;-67
2021/09/06 06:01:14;;;;;;;7.30;1.45;;;20.10;56.80;;;;;;5106301;28;20032;-63
2021/09/06 06:03:41;;;;;;;5.03;1.92;;;20.20;57.00;;;;;;5106989;28;20031;-66
2021/09/06 06:06:09;;;;;;;4.10;1.90;;;20.20;56.00;;;;;;5099013;28;20111;-65
2021/09/06 06:08:40;;;;;;;8.15;2.17;;;20.30;56.80;;;;;;5109298;28;20031;-66
2021/09/06 06:11:07;;;;;;;10.05;2.67;;;20.20;56.80;;;;;;5110723;28;22713;-66
2021/09/06 06:13:35;;;;;;;5.65;2.33;;;20.20;55.40;;;;;;5110959;28;21350;-68
2021/09/06 06:16:02;;;;;;;4.95;1.75;;;20.20;55.70;;;;;;5101401;28;20073;-62
2021/09/06 06:18:30;;;;;;;7.15;2.10;;;20.20;56.70;;;;;;5088026;28;20828;-63
2021/09/06 06:20:57;;;;;;;9.82;2.03;;;20.20;56.40;;;;;;5098491;28;20020;-69
2021/09/06 06:23:25;;;;;;;6.10;1.80;;;20.20;56.30;;;;;;5096761;28;20027;-69
2021/09/06 06:25:52;;;;;;;7.78;2.55;;;20.20;57.10;;;;;;5097820;28;20024;-66
2021/09/06 06:28:20;;;;;;;7.65;1.77;;;20.10;56.60;;;;;;5110259;28;20063;-64
2021/09/06 06:30:47;;;;;;;5.38;1.80;;;20.10;57.00;;;;;;5105521;28;20024;-61
2021/09/06 06:33:15;;;;;;;4.03;1.60;;;20.10;56.40;;;;;;5070282;28;20038;-61
2021/09/06 06:35:42;;;;;;;9.05;1.80;;;20.00;56.40;;;;;;5103589;28;20039;-62
2021/09/06 06:38:09;;;;;;;5.32;1.88;;;20.00;57.50;;;;;;5105509;28;20099;-59
2021/09/06 06:40:37;;;;;;;7.18;2.20;;;20.00;56.70;;;;;;5099425;28;20148;-63
2021/09/06 06:43:05;;;;;;;6.75;1.85;;;20.00;57.00;;;;;;5099203;28;20637;-60
2021/09/06 06:45:32;;;;;;;6.15;1.80;;;20.00;56.60;;;;;;5108947;28;20079;-63
2021/09/06 06:48:00;;;;;;;7.10;1.80;;;19.90;57.40;;;;;;5100246;28;20027;-62
2021/09/06 06:50:27;;;;;;;4.22;1.73;;;19.90;58.10;;;;;;5100089;28;20039;-60
2021/09/06 06:52:55;;;;;;;6.20;1.52;;;19.90;57.70;;;;;;5103036;28;20011;-62
2021/09/06 06:55:23;;;;;;;4.25;1.70;;;19.90;56.90;;;;;;5108917;28;20035;-62
2021/09/06 06:57:50;;;;;;;6.90;1.88;;;19.80;57.90;;;;;;5109164;28;20073;-60
2021/09/06 07:00:18;;;;;;;4.72;1.70;;;19.80;58.20;;;;;;5107828;28;20019;-61
2021/09/06 07:02:47;;;;;;;5.72;1.30;;;19.70;58.90;;;;;;5100801;28;20027;-63
2021/09/06 07:05:14;;;;;;;7.55;2.03;;;19.70;59.40;;;;;;5108903;28;20027;-65
2021/09/06 07:07:42;;;;;;;8.85;2.60;;;19.70;58.50;;;;;;5109063;28;20112;-63
2021/09/06 07:10:10;;;;;;;4.95;1.55;;;19.60;58.50;;;;;;5086800;28;20027;-66
2021/09/06 07:12:41;;;;;;;7.28;1.98;;;19.60;58.10;;;;;;5082732;28;20020;-61
2021/09/06 07:15:10;;;;;;;7.32;1.80;;;19.50;58.50;;;;;;5104873;28;20026;-62
2021/09/06 07:17:37;;;;;;;5.50;1.92;;;19.60;58.90;;;;;;5108038;28;20012;-60
2021/09/06 07:20:05;;;;;;;7.70;1.67;;;19.50;58.40;;;;;;5089292;28;20035;-61
2021/09/06 07:22:33;;;;;;;4.35;1.80;;;19.40;59.10;;;;;;5102444;28;20027;-64
2021/09/06 07:25:00;;;;;;;7.32;2.13;;;19.30;59.70;;;;;;5107947;28;20467;-65
2021/09/06 07:27:27;;;;;;;8.32;2.80;;;19.30;59.80;;;;;;5108106;28;20431;-64
2021/09/06 07:29:55;;;;;;;8.07;2.20;;;19.20;58.60;;;;;;5108125;28;20034;-63
2021/09/06 07:32:22;;;;;;;4.55;1.73;;;19.10;59.70;;;;;;5101955;28;20020;-63
2021/09/06 07:34:50;;;;;;;8.40;2.28;;;19.10;60.20;;;;;;5108427;28;20024;-67
2021/09/06 07:37:17;;;;;;;6.90;1.98;;;19.00;60.70;;;;;;5109401;28;20382;-67
2021/09/06 07:39:47;;;;;;;4.95;2.00;;;19.00;61.30;;;;;;5108444;28;20034;-66
2021/09/06 07:42:14;;;;;;;4.60;1.77;;;18.90;61.40;;;;;;5099451;28;20036;-60
2021/09/06 07:44:42;;;;;;;7.88;1.63;;;18.80;61.70;;;;;;5104417;28;20015;-60
2021/09/06 07:47:09;;;;;;;6.38;2.15;;;18.80;61.80;;;;;;5108037;28;20034;-68
2021/09/06 07:49:37;;;;;;;7.93;1.70;;;18.80;62.30;;;;;;5089072;28;20127;-60
2021/09/06 07:52:04;;;;;;;4.07;1.60;;;18.70;62.10;;;;;;5099481;28;20046;-64
2021/09/06 07:54:32;;;;;;;10.07;2.00;;;18.70;62.10;;;;;;5107788;28;20035;-62
2021/09/06 07:56:59;;;;;;;5.22;1.88;;;18.60;62.50;;;;;;5104293;28;20046;-62
2021/09/06 07:59:26;;;;;;;5.60;1.58;;;18.60;62.70;;;;;;5107683;28;20047;-68
2021/09/06 08:01:54;;;;;;;5.45;1.67;;;18.50;62.90;;;;;;5081989;28;20026;-61
2021/09/06 08:04:22;;;;;;;6.00;1.83;;;18.50;63.10;;;;;;5088115;28;20115;-64
2021/09/06 08:06:49;;;;;;;5.97;1.92;;;18.50;63.20;;;;;;5107126;28;20099;-65
2021/09/06 08:09:16;;;;;;;6.40;1.98;;;18.40;63.90;;;;;;5109008;28;20100;-61
2021/09/06 08:11:46;;;;;;;9.60;2.45;;;18.40;63.40;;;;;;5095499;28;20036;-64
2021/09/06 08:14:14;;;;;;;5.03;1.92;;;18.40;63.40;;;;;;5105169;28;20031;-63
2021/09/06 08:16:41;;;;;;;7.32;1.85;;;18.30;63.50;;;;;;5103700;28;20019;-61
2021/09/06 08:19:09;;;;;;;4.60;1.65;;;18.30;63.50;;;;;;5107485;28;20023;-61
2021/09/06 08:21:37;;;;;;;8.85;2.40;;;18.20;63.70;;;;;;5099774;28;20032;-68
2021/09/06 08:24:04;;;;;;;7.10;2.80;;;18.20;63.80;;;;;;5106911;28;20030;-68
2021/09/06 08:26:32;;;;;;;40.08;15.95;;;18.20;64.00;;;;;;5107046;28;20046;-74
2021/09/06 08:29:00;;;;;;;66.78;27.35;;;18.20;64.80;;;;;;5107481;28;20394;-73
2021/09/06 08:31:30;;;;;;;85.20;34.05;;;18.20;64.50;;;;;;5067856;28;20393;-65
2021/09/06 08:33:59;;;;;;;75.22;35.00;;;18.20;64.10;;;;;;5109632;28;20023;-76
2021/09/06 08:36:26;;;;;;;81.15;37.30;;;18.20;64.00;;;;;;5109427;28;20118;-74
2021/09/06 08:38:54;;;;;;;90.20;38.97;;;18.20;64.10;;;;;;5091514;28;20031;-67
2021/09/06 08:41:22;;;;;;;97.90;41.25;;;18.20;64.30;;;;;;5078223;28;20606;-71
2021/09/06 08:43:49;;;;;;;85.75;41.88;;;18.20;64.40;;;;;;5104289;28;21098;-68
2021/09/06 08:46:18;;;;;;;93.95;44.10;;;18.20;64.10;;;;;;5100661;28;20505;-66
2021/09/06 08:48:49;;;;;;;96.00;44.20;;;18.20;64.30;;;;;;5085623;28;20143;-62
2021/09/06 08:51:18;;;;;;;84.68;42.80;;;18.10;64.30;;;;;;5077793;28;20044;-65
2021/09/06 08:53:46;;;;;;;83.05;39.60;;;18.10;64.30;;;;;;5099506;28;20110;-68
2021/09/06 08:56:21;;;;;;;79.93;38.97;;;18.10;64.40;;;;;;5101144;28;20032;-69
2021/09/06 08:58:48;;;;;;;79.50;39.42;;;18.10;64.40;;;;;;5090130;28;20023;-71
2021/09/06 09:01:19;;;;;;;80.38;39.95;;;18.10;64.40;;;;;;5080228;28;20028;-69
2021/09/06 09:03:50;;;;;;;82.85;37.05;;;18.10;64.40;;;;;;5084756;28;20049;-70
2021/09/06 09:06:19;;;;;;;72.22;38.22;;;17.90;64.30;;;;;;5090235;28;20020;-66
2021/09/06 09:08:46;;;;;;;80.15;38.00;;;17.90;64.20;;;;;;5103632;28;20508;-64
2021/09/06 09:11:15;;;;;;;95.65;42.47;;;17.90;64.30;;;;;;5093454;28;20036;-68
2021/09/06 09:13:44;;;;;;;83.30;39.25;;;17.90;64.50;;;;;;5106128;28;20047;-61
2021/09/06 09:16:11;;;;;;;82.63;39.08;;;17.90;64.10;;;;;;5104035;28;20077;-65
2021/09/06 09:18:39;;;;;;;78.43;37.65;;;17.90;64.40;;;;;;5106501;28;20027;-62
2021/09/06 09:21:11;;;;;;;77.00;39.15;;;17.90;64.40;;;;;;5084580;28;20043;-59
2021/09/06 09:23:41;;;;;;;;;;;17.90;64.40;;;;;;5090414;28;20076;-63
2021/09/06 09:26:13;;;;;;;86.30;39.58;;;17.90;64.50;;;;;;5111341;28;19914;-66
2021/09/06 09:28:50;;;;;;;77.35;38.75;;;17.90;64.50;;;;;;5110712;28;20028;-68
2021/09/06 09:31:20;;;;;;;81.05;38.95;;;17.90;64.40;;;;;;5106229;28;20048;-64
2021/09/06 09:33:54;;;;;;;81.45;38.92;;;17.90;64.50;;;;;;5110128;28;20375;-68
2021/09/06 09:36:47;;;;;;;76.43;39.08;;;17.90;64.40;;;;;;5110982;28;20020;-61
2021/09/06 09:39:19;;;;;;;88.82;40.00;;;17.90;64.40;;;;;;5105115;28;20043;-62
2021/09/06 09:41:50;;;;;;;82.85;38.53;;;17.90;64.40;;;;;;5103222;28;20040;-68
2021/09/06 09:44:26;;;;;;;80.32;37.30;;;17.90;64.40;;;;;;5111143;28;20522;-67
2021/09/06 09:47:03;;;;;;;73.43;36.03;;;17.90;64.50;;;;;;5091634;28;20019;-63
2021/09/06 09:49:34;;;;;;;76.60;37.85;;;17.90;64.50;;;;;;5111064;28;20481;-67
2021/09/06 09:52:01;;;;;;;77.90;37.80;;;17.90;64.50;;;;;;5096804;28;20032;-65
2021/09/06 09:54:29;;;;;;;76.63;36.97;;;17.90;64.40;;;;;;5110810;28;20024;-69
2021/09/06 09:56:57;;;;;;;76.28;36.63;;;17.80;64.50;;;;;;5110409;28;20035;-71
2021/09/06 09:59:24;;;;;;;71.45;36.75;;;17.90;64.50;;;;;;5109893;28;20099;-59
2021/09/06 10:01:57;;;;;;;69.45;35.28;;;17.80;64.50;;;;;;5099694;28;20037;-65
2021/09/06 10:04:28;;;;;;;73.07;33.85;;;17.80;64.40;;;;;;5092040;28;20058;-64
2021/09/06 10:06:57;;;;;;;78.18;37.15;;;17.80;64.30;;;;;;5109863;28;20040;-62
2021/09/06 10:09:25;;;;;;;71.65;35.58;;;17.80;64.50;;;;;;5104402;28;20066;-69
2021/09/06 10:11:52;;;;;;;70.00;34.03;;;17.80;64.50;;;;;;5098333;28;20028;-69
2021/09/06 10:14:22;;;;;;;72.40;34.90;;;17.80;64.40;;;;;;5108043;28;20042;-63
2021/09/06 10:17:06;;;;;;;72.05;35.97;;;17.80;64.60;;;;;;5111841;28;20047;-73
2021/09/06 10:19:50;;;;;;;64.70;32.10;;;17.70;64.50;;;;;;5111089;28;20015;-70
2021/09/06 10:22:29;;;;;;;63.50;33.45;;;17.80;64.60;;;;;;5100125;28;20046;-62
2021/09/06 10:25:06;;;;;;;64.55;33.92;;;17.70;64.50;;;;;;5104632;28;20032;-65
2021/09/06 10:27:36;;;;;;;66.68;33.25;;;17.80;64.60;;;;;;5110844;28;20032;-73
2021/09/06 10:30:13;;;;;;;66.35;32.83;;;17.80;64.60;;;;;;5110284;28;20034;-67
2021/09/06 10:32:50;;;;;;;63.97;32.53;;;17.80;64.70;;;;;;5080462;28;20024;-62
2021/09/06 10:35:22;;;;;;;58.65;30.77;;;17.80;64.60;;;;;;5108893;28;20024;-66
2021/09/06 10:38:05;;;;;;;54.97;31.65;;;17.70;64.50;;;;;;5091546;28;20023;-63
2021/09/06 10:40:36;;;;;;;60.75;32.70;;;17.70;64.60;;;;;;5109306;28;20028;-62
2021/09/06 10:43:17;;;;;;;59.90;30.38;;;17.70;64.70;;;;;;5082844;28;20265;-64
2021/09/06 10:45:47;;;;;;;60.33;31.05;;;17.70;64.70;;;;;;5105988;28;20035;-69
2021/09/06 10:48:24;;;;;;;55.25;28.38;;;17.70;64.70;;;;;;5091413;28;20386;-73
2021/09/06 10:50:53;;;;;;;59.65;29.35;;;17.70;64.80;;;;;;5090731;28;20466;-63
2021/09/06 10:53:23;;;;;;;55.80;28.75;;;17.70;64.70;;;;;;5090167;28;20036;-69
2021/09/06 10:55:53;;;;;;;57.17;28.83;;;17.70;64.60;;;;;;5091306;28;20028;-74
2021/09/06 10:58:25;;;;;;;53.60;28.85;;;17.70;64.80;;;;;;5096171;28;20142;-66
2021/09/06 11:00:58;;;;;;;48.65;27.90;;;17.70;64.90;;;;;;5110825;28;20160;-71
2021/09/06 11:03:34;;;;;;;56.60;27.73;;;17.60;64.80;;;;;;5111033;28;20047;-66
2021/09/06 11:06:03;;;;;;;55.63;27.63;;;17.50;64.80;;;;;;5110712;28;20109;-64
2021/09/06 11:08:33;;;;;;;57.72;28.83;;;17.60;65.00;;;;;;5092744;28;20111;-66
2021/09/06 11:11:03;;;;;;;52.92;27.80;;;17.60;65.00;;;;;;5110757;28;20031;-72
2021/09/06 11:13:40;;;;;;;48.75;24.98;;;17.60;65.10;;;;;;5092115;28;20068;-63
2021/09/06 11:16:09;;;;;;;54.03;27.92;;;17.50;65.10;;;;;;5110408;28;20425;-74
2021/09/06 11:18:42;;;;;;;48.65;26.17;;;17.50;65.10;;;;;;5092050;28;20087;-63
2021/09/06 11:21:10;;;;;;;53.70;25.40;;;17.50;65.20;;;;;;5110450;28;20059;-68
2021/09/06 11:23:43;;;;;;;46.17;25.05;;;17.40;65.20;;;;;;5110540;28;20008;-61
2021/09/06 11:26:24;;;;;;;50.47;25.50;;;17.40;65.40;;;;;;5110281;28;20020;-61
2021/09/06 11:28:51;;;;;;;49.78;24.92;;;17.40;65.40;;;;;;5110025;28;20032;-72
2021/09/06 11:31:23;;;;;;;47.75;24.27;;;17.40;65.50;;;;;;5110458;28;20154;-66
2021/09/06 11:33:57;;;;;;;46.25;24.92;;;17.40;65.50;;;;;;5110235;28;20095;-62
2021/09/06 11:36:25;;;;;;;44.45;23.40;;;17.40;65.60;;;;;;5110270;28;20023;-65
2021/09/06 11:38:53;;;;;;;47.85;23.05;;;17.30;65.70;;;;;;5110110;28;20012;-68
2021/09/06 11:41:21;;;;;;;42.67;22.55;;;17.30;65.80;;;;;;5091378;28;20037;-65
2021/09/06 11:43:49;;;;;;;42.35;23.02;;;17.30;65.80;;;;;;5091775;28;20127;-65
2021/09/06 11:46:17;;;;;;;43.72;23.25;;;17.30;65.90;;;;;;5109644;28;20034;-62
2021/09/06 11:48:48;;;;;;;42.38;21.98;;;17.20;65.90;;;;;;5109657;28;20067;-71
2021/09/06 11:51:17;;;;;;;42.42;22.23;;;17.20;66.00;;;;;;5110009;28;20382;-66
2021/09/06 11:54:01;;;;;;;41.72;21.23;;;17.20;66.10;;;;;;5110390;28;20020;-64
2021/09/06 11:56:33;;;;;;;41.92;21.08;;;17.20;66.20;;;;;;5110336;28;20120;-63
2021/09/06 11:59:02;;;;;;;34.47;19.63;;;17.20;66.20;;;;;;5110907;28;20019;-67
2021/09/06 12:01:30;;;;;;;40.97;19.58;;;17.20;66.30;;;;;;5109986;28;20030;-68
2021/09/06 12:04:11;;;;;;;34.50;20.00;;;17.10;66.30;;;;;;5110036;28;20367;-64
2021/09/06 12:06:39;;;;;;;36.95;18.73;;;17.10;66.40;;;;;;5109616;28;20019;-71
2021/09/06 12:09:10;;;;;;;38.13;20.33;;;17.10;66.50;;;;;;5109716;28;20281;-70
2021/09/06 12:11:40;;;;;;;35.35;18.85;;;17.10;66.60;;;;;;5108993;28;20055;-68
2021/09/06 12:14:09;;;;;;;41.67;20.27;;;17.10;66.70;;;;;;5109660;28;20100;-61
2021/09/06 12:16:38;;;;;;;33.10;18.95;;;17.00;66.60;;;;;;5109085;28;20106;-68
2021/09/06 12:19:20;;;;;;;37.17;19.60;;;17.00;66.80;;;;;;5109048;28;20046;-68
2021/09/06 12:21:48;;;;;;;33.30;19.42;;;17.00;66.80;;;;;;5109217;28;20044;-67
2021/09/06 12:24:25;;;;;;;37.15;19.60;;;17.00;66.90;;;;;;5109324;28;20024;-64
2021/09/06 12:26:53;;;;;;;38.13;19.33;;;17.00;67.00;;;;;;5108679;28;20628;-61
2021/09/06 12:29:34;;;;;;;37.05;19.48;;;17.00;67.00;;;;;;5109558;28;20038;-66
2021/09/06 12:32:03;;;;;;;31.92;18.33;;;17.00;67.00;;;;;;5109268;28;20026;-70
2021/09/06 12:34:35;;;;;;;33.90;17.58;;;17.00;67.20;;;;;;5109338;28;20019;-65
2021/09/06 12:37:04;;;;;;;32.85;16.65;;;17.00;67.20;;;;;;5109343;28;20492;-68
2021/09/06 12:39:34;;;;;;;30.27;16.98;;;16.90;67.20;;;;;;5109234;28;20023;-74
2021/09/06 12:42:02;;;;;;;33.78;17.67;;;16.90;67.20;;;;;;5108518;28;20073;-71
2021/09/06 12:44:30;;;;;;;34.55;18.15;;;16.90;67.20;;;;;;5090830;28;20032;-76
2021/09/06 12:46:58;;;;;;;35.28;16.88;;;16.90;67.30;;;;;;5108518;28;20394;-71
2021/09/06 12:49:27;;;;;;;30.15;16.17;;;16.90;67.30;;;;;;5110738;28;20095;-66